createdAt,value
2017-09-26T00:02:23.019Z,99.70
2017-09-26T00:04:50.648Z,99.90
2017-09-26T00:07:18.319Z,99.90
2017-09-26T00:09:45.972Z,99.90
2017-09-26T00:12:13.619Z,99.90
2017-09-26T00:14:41.287Z,99.90
2017-09-26T00:17:09.691Z,99.90
2017-09-26T00:19:37.325Z,99.90
2017-09-26T00:22:04.996Z,99.90
2017-09-26T00:24:32.641Z,99.90
2017-09-26T00:27:00.276Z,99.90
2017-09-26T00:29:27.939Z,99.90
2017-09-26T00:31:55.580Z,99.30
2017-09-26T00:34:23.221Z,99.20
2017-09-26T00:36:51.183Z,99.60
2017-09-26T00:39:18.816Z,99.80
2017-09-26T00:41:46.449Z,99.10
2017-09-26T00:44:14.098Z,98.70
2017-09-26T00:46:41.725Z,99.00
2017-09-26T00:49:09.357Z,98.70
2017-09-26T00:51:37.014Z,98.50
2017-09-26T00:54:05.403Z,99.20
2017-09-26T00:56:33.037Z,99.20
2017-09-26T00:59:00.694Z,99.00
2017-09-26T01:01:29.926Z,99.30
2017-09-26T01:03:59.350Z,99.40
2017-09-26T01:06:27.776Z,98.60
2017-09-26T01:08:55.392Z,98.60
2017-09-26T01:11:23.009Z,98.90
2017-09-26T01:13:51.426Z,99.10
2017-09-26T01:16:19.057Z,99.10
2017-09-26T01:18:46.674Z,99.00
2017-09-26T01:21:15.093Z,99.50
2017-09-26T01:23:42.722Z,99.50
2017-09-26T01:26:10.342Z,99.50
2017-09-26T01:28:37.990Z,99.50
2017-09-26T01:31:05.608Z,99.90
2017-09-26T01:33:33.997Z,99.40
2017-09-26T01:36:01.651Z,99.40
2017-09-26T01:38:29.275Z,99.90
2017-09-26T01:41:09.495Z,99.40
2017-09-26T01:43:37.126Z,99.40
2017-09-26T01:46:04.746Z,98.90
2017-09-26T01:48:32.403Z,99.00
2017-09-26T01:51:00.024Z,99.70
2017-09-26T01:53:27.646Z,99.50
2017-09-26T01:55:56.065Z,98.80
2017-09-26T01:58:27.109Z,98.70
2017-09-26T02:00:54.739Z,99.00
2017-09-26T02:03:22.403Z,99.10
2017-09-26T02:05:50.028Z,98.80
2017-09-26T02:08:17.650Z,98.60
2017-09-26T02:10:45.305Z,99.30
2017-09-26T02:13:12.928Z,99.20
2017-09-26T02:15:40.545Z,99.30
2017-09-26T02:18:08.201Z,99.20
2017-09-26T02:20:36.595Z,99.90
2017-09-26T02:23:04.213Z,99.90
2017-09-26T02:25:32.637Z,99.90
2017-09-26T02:28:00.298Z,99.90
2017-09-26T02:30:27.931Z,99.90
2017-09-26T02:32:55.592Z,99.90
2017-09-26T02:35:23.209Z,99.90
2017-09-26T02:37:50.839Z,99.90
2017-09-26T02:40:18.487Z,99.90
2017-09-26T02:42:46.104Z,99.90
2017-09-26T02:45:13.728Z,99.90
2017-09-26T02:47:41.379Z,99.90
2017-09-26T02:50:09.005Z,99.90
2017-09-26T02:52:36.624Z,99.90
2017-09-26T02:55:04.283Z,99.90
2017-09-26T02:57:31.909Z,99.60
2017-09-26T02:59:59.529Z,99.30
2017-09-26T03:02:27.950Z,99.30
2017-09-26T03:04:55.571Z,99.30
2017-09-26T03:07:23.195Z,99.40
2017-09-26T03:09:50.846Z,99.30
2017-09-26T03:12:18.469Z,99.90
2017-09-26T03:14:46.126Z,99.30
2017-09-26T03:17:14.548Z,98.50
2017-09-26T03:19:42.175Z,98.50
2017-09-26T03:22:09.794Z,98.70
2017-09-26T03:24:37.451Z,98.40
2017-09-26T03:27:05.074Z,98.40
2017-09-26T03:29:33.463Z,99.40
2017-09-26T03:32:01.113Z,99.40
2017-09-26T03:34:29.594Z,99.30
2017-09-26T03:36:57.213Z,99.30
2017-09-26T03:39:24.867Z,98.00
2017-09-26T03:41:52.482Z,98.00
2017-09-26T03:44:20.883Z,97.70
2017-09-26T03:46:48.704Z,98.30
2017-09-26T03:49:17.093Z,99.00
2017-09-26T03:51:44.729Z,99.00
2017-09-26T03:54:12.379Z,98.00
2017-09-26T03:56:39.998Z,97.90
2017-09-26T03:59:08.390Z,97.30
2017-09-26T04:01:36.039Z,97.30
2017-09-26T04:04:03.657Z,98.10
2017-09-26T04:06:32.045Z,97.50
2017-09-26T04:08:59.694Z,97.50
2017-09-26T04:11:27.327Z,97.40
2017-09-26T04:13:54.959Z,97.00
2017-09-26T04:16:23.461Z,97.80
2017-09-26T04:18:51.077Z,97.80
2017-09-26T04:21:19.458Z,97.70
2017-09-26T04:23:47.106Z,97.70
2017-09-26T04:26:14.724Z,97.20
2017-09-26T04:28:43.109Z,97.40
2017-09-26T04:31:10.758Z,97.40
2017-09-26T04:33:38.380Z,97.40
2017-09-26T04:36:06.765Z,96.50
2017-09-26T04:38:34.419Z,96.50
2017-09-26T04:41:02.038Z,97.00
2017-09-26T04:43:30.422Z,96.90
2017-09-26T04:45:58.075Z,96.90
2017-09-26T04:48:25.705Z,97.30
2017-09-26T04:50:56.705Z,97.40
2017-09-26T04:53:24.353Z,97.30
2017-09-26T04:55:51.975Z,96.70
2017-09-26T04:58:19.594Z,96.80
2017-09-26T05:00:48.218Z,97.60
2017-09-26T05:03:15.932Z,98.10
2017-09-26T05:05:43.562Z,98.40
2017-09-26T05:08:11.213Z,96.80
2017-09-26T05:10:38.834Z,97.30
2017-09-26T05:13:06.495Z,98.40
2017-09-26T05:15:34.174Z,98.70
2017-09-26T05:18:01.803Z,99.40
2017-09-26T05:20:29.426Z,99.40
2017-09-26T05:22:57.145Z,99.90
2017-09-26T05:25:24.766Z,99.90
2017-09-26T05:27:52.376Z,99.90
2017-09-26T05:30:20.034Z,98.40
2017-09-26T05:32:47.659Z,96.40
2017-09-26T05:35:15.305Z,95.00
2017-09-26T05:37:42.961Z,95.00
2017-09-26T05:40:10.583Z,94.50
2017-09-26T05:42:38.971Z,94.00
2017-09-26T05:45:06.622Z,94.00
2017-09-26T05:47:34.241Z,93.40
2017-09-26T05:50:02.631Z,92.60
2017-09-26T05:52:30.292Z,92.40
2017-09-26T05:54:57.914Z,90.80
2017-09-26T05:57:25.669Z,90.90
2017-09-26T05:59:53.350Z,90.50
2017-09-26T06:02:21.293Z,89.90
2017-09-26T06:04:49.286Z,90.00
2017-09-26T06:07:18.130Z,90.40
2017-09-26T06:09:45.790Z,90.40
2017-09-26T06:12:13.418Z,89.90
2017-09-26T06:14:41.071Z,88.00
2017-09-26T06:17:08.695Z,87.10
2017-09-26T06:19:36.311Z,86.60
2017-09-26T06:22:03.970Z,84.50
2017-09-26T06:24:31.590Z,85.80
2017-09-26T06:26:59.974Z,82.10
2017-09-26T06:29:27.630Z,82.00
2017-09-26T06:31:55.242Z,79.80
2017-09-26T06:34:23.638Z,73.30
2017-09-26T06:36:51.290Z,72.90
2017-09-26T06:39:18.905Z,73.30
2017-09-26T06:41:47.284Z,67.30
2017-09-26T06:44:15.700Z,72.00
2017-09-26T06:46:43.334Z,72.10
2017-09-26T06:49:10.957Z,73.70
2017-09-26T06:51:38.607Z,72.50
2017-09-26T06:54:06.218Z,72.20
2017-09-26T06:56:33.834Z,75.00
2017-09-26T06:59:01.493Z,77.00
2017-09-26T07:01:29.114Z,77.90
2017-09-26T07:03:56.726Z,75.70
2017-09-26T07:06:24.373Z,76.00
2017-09-26T07:08:51.993Z,79.50
2017-09-26T07:11:20.374Z,78.80
2017-09-26T07:13:48.026Z,79.00
2017-09-26T07:16:15.647Z,78.40
2017-09-26T07:18:43.270Z,77.20
2017-09-26T07:21:10.933Z,77.30
2017-09-26T07:23:38.560Z,78.70
2017-09-26T07:26:06.173Z,76.50
2017-09-26T07:28:33.846Z,76.40
2017-09-26T07:31:01.468Z,75.90
2017-09-26T07:33:29.087Z,76.40
2017-09-26T07:35:56.734Z,74.80
2017-09-26T07:38:25.115Z,74.60
2017-09-26T07:40:52.731Z,74.60
2017-09-26T07:43:20.374Z,73.50
2017-09-26T07:45:48.757Z,74.80
2017-09-26T07:48:17.146Z,75.80
2017-09-26T07:50:44.810Z,75.80
2017-09-26T07:53:12.422Z,74.50
2017-09-26T07:55:40.044Z,76.10
2017-09-26T07:58:08.462Z,72.90
2017-09-26T08:00:36.311Z,72.80
2017-09-26T08:03:03.927Z,71.40
2017-09-26T08:05:31.826Z,71.50
2017-09-26T08:07:59.816Z,70.30
2017-09-26T08:10:28.194Z,62.50
2017-09-26T08:12:55.847Z,62.50
2017-09-26T08:15:23.459Z,61.80
2017-09-26T08:17:51.078Z,58.80
2017-09-26T08:20:18.722Z,58.70
2017-09-26T08:22:46.335Z,51.60
2017-09-26T08:25:13.950Z,51.20
2017-09-26T08:27:41.575Z,52.50
2017-09-26T08:30:09.161Z,47.10
2017-09-26T08:32:37.521Z,46.70
2017-09-26T08:35:05.930Z,50.10
2017-09-26T08:37:33.547Z,50.00
2017-09-26T08:40:01.163Z,51.00
2017-09-26T08:42:29.570Z,52.50
2017-09-26T08:44:57.190Z,52.30
2017-09-26T08:47:24.804Z,54.10
2017-09-26T08:49:52.450Z,53.80
2017-09-26T08:52:20.037Z,51.50
2017-09-26T08:54:48.390Z,50.90
2017-09-26T08:57:16.022Z,50.80
2017-09-26T08:59:43.619Z,47.00
2017-09-26T09:02:11.210Z,45.80
2017-09-26T09:04:38.833Z,44.40
2017-09-26T09:07:06.417Z,46.50
2017-09-26T09:09:34.002Z,36.90
2017-09-26T09:12:01.617Z,40.90
2017-09-26T09:14:29.205Z,40.10
2017-09-26T09:16:56.797Z,39.80
2017-09-26T09:19:24.418Z,46.00
2017-09-26T09:21:52.006Z,38.80
2017-09-26T09:24:20.354Z,38.20
2017-09-26T09:26:47.970Z,38.10
2017-09-26T09:29:15.567Z,39.50
2017-09-26T09:31:43.921Z,37.40
2017-09-26T09:34:12.310Z,30.10
2017-09-26T09:36:39.900Z,30.20
2017-09-26T09:39:07.489Z,33.20
2017-09-26T09:41:35.119Z,35.60
2017-09-26T09:44:02.709Z,33.40
2017-09-26T09:46:30.303Z,35.10
2017-09-26T09:48:57.928Z,35.40
2017-09-26T09:51:25.515Z,34.90
2017-09-26T09:53:53.102Z,34.70
2017-09-26T09:56:20.723Z,36.70
2017-09-26T09:58:48.315Z,37.30
2017-09-26T10:01:15.903Z,35.30
2017-09-26T10:03:43.525Z,38.40
2017-09-26T10:06:11.883Z,40.30
2017-09-26T10:08:39.475Z,40.30
2017-09-26T10:11:07.104Z,36.30
2017-09-26T10:13:34.695Z,33.40
2017-09-26T10:16:02.277Z,34.30
2017-09-26T10:18:30.661Z,30.90
2017-09-26T10:20:58.253Z,30.90
2017-09-26T10:23:25.845Z,32.90
2017-09-26T10:25:53.467Z,31.90
2017-09-26T10:28:21.822Z,35.40
2017-09-26T10:30:49.414Z,34.90
2017-09-26T10:33:17.045Z,32.50
2017-09-26T10:35:44.640Z,36.70
2017-09-26T10:38:12.231Z,37.80
2017-09-26T10:40:40.624Z,32.00
2017-09-26T10:43:08.209Z,31.90
2017-09-26T10:45:35.805Z,35.70
2017-09-26T10:48:03.432Z,33.60
2017-09-26T10:50:31.021Z,33.90
2017-09-26T10:52:58.611Z,34.40
2017-09-26T10:55:26.998Z,38.70
2017-09-26T10:57:54.590Z,38.70
2017-09-26T11:00:22.183Z,39.50
2017-09-26T11:02:49.806Z,37.80
2017-09-26T11:05:18.163Z,37.60
2017-09-26T11:07:45.766Z,37.50
2017-09-26T11:10:13.380Z,40.80
2017-09-26T11:12:40.982Z,40.20
2017-09-26T11:15:08.574Z,36.30
2017-09-26T11:17:36.203Z,36.30
2017-09-26T11:20:04.559Z,37.00
2017-09-26T11:22:32.157Z,36.90
2017-09-26T11:24:59.782Z,36.80
2017-09-26T11:27:27.379Z,35.70
2017-09-26T11:29:54.989Z,36.20
2017-09-26T11:32:22.610Z,37.70
2017-09-26T11:34:50.203Z,35.60
2017-09-26T11:37:17.794Z,37.20
2017-09-26T11:39:46.179Z,37.20
2017-09-26T11:42:13.769Z,37.10
2017-09-26T11:44:41.371Z,38.80
2017-09-26T11:47:09.019Z,40.00
2017-09-26T11:49:36.603Z,37.50
2017-09-26T11:52:04.185Z,39.40
2017-09-26T11:54:31.834Z,40.20
2017-09-26T11:56:59.422Z,39.30
2017-09-26T11:59:27.046Z,39.30
2017-09-26T12:01:54.666Z,40.50
2017-09-26T12:04:22.291Z,41.30
2017-09-26T12:06:50.669Z,40.60
2017-09-26T12:09:19.086Z,38.60
2017-09-26T12:11:46.697Z,38.50
2017-09-26T12:14:14.310Z,41.10
2017-09-26T12:16:41.930Z,41.50
2017-09-26T12:19:09.543Z,42.90
2017-09-26T12:21:37.134Z,44.20
2017-09-26T12:24:04.746Z,43.90
2017-09-26T12:26:32.342Z,41.40
2017-09-26T12:28:59.939Z,43.20
2017-09-26T12:31:27.581Z,45.30
2017-09-26T12:33:55.188Z,45.10
2017-09-26T12:36:22.794Z,47.10
2017-09-26T12:38:50.443Z,48.20
2017-09-26T12:41:18.066Z,46.30
2017-09-26T12:43:45.677Z,47.10
2017-09-26T12:46:13.315Z,47.60
2017-09-26T12:48:41.699Z,48.00
2017-09-26T12:51:09.309Z,48.00
2017-09-26T12:53:36.956Z,49.20
2017-09-26T12:56:05.329Z,50.00
2017-09-26T12:58:32.947Z,49.90
2017-09-26T13:01:00.596Z,50.50
2017-09-26T13:03:28.207Z,52.80
2017-09-26T13:05:55.821Z,54.40
2017-09-26T13:08:23.471Z,56.60
2017-09-26T13:10:51.082Z,55.50
2017-09-26T13:13:18.693Z,57.30
2017-09-26T13:15:46.333Z,58.30
2017-09-26T13:18:13.947Z,57.00
2017-09-26T13:20:42.318Z,58.00
2017-09-26T13:23:09.964Z,57.90
2017-09-26T13:25:37.579Z,59.60
2017-09-26T13:28:05.193Z,58.50
2017-09-26T13:30:32.845Z,56.90
2017-09-26T13:33:00.465Z,56.30
2017-09-26T13:35:28.084Z,51.70
2017-09-26T13:37:56.489Z,50.90
2017-09-26T13:40:24.100Z,51.00
2017-09-26T13:42:51.711Z,54.10
2017-09-26T13:45:19.359Z,50.00
2017-09-26T13:47:46.974Z,52.90
2017-09-26T13:50:14.590Z,52.60
2017-09-26T13:52:42.231Z,51.50
2017-09-26T13:55:09.841Z,53.00
2017-09-26T13:57:37.474Z,53.80
2017-09-26T14:00:05.125Z,52.80
2017-09-26T14:02:32.738Z,53.70
2017-09-26T14:05:00.346Z,54.50
2017-09-26T14:07:28.753Z,53.90
2017-09-26T14:09:56.445Z,53.60
2017-09-26T14:12:24.061Z,54.10
2017-09-26T14:14:51.708Z,54.20
2017-09-26T14:17:19.335Z,51.80
2017-09-26T14:19:46.942Z,52.70
2017-09-26T14:22:15.349Z,54.70
2017-09-26T14:24:42.962Z,54.70
2017-09-26T14:27:11.341Z,52.90
2017-09-26T14:29:38.994Z,52.90
2017-09-26T14:32:06.610Z,54.70
2017-09-26T14:34:34.986Z,55.40
2017-09-26T14:37:02.642Z,55.30
2017-09-26T14:39:30.259Z,53.50
2017-09-26T14:41:57.933Z,55.00
2017-09-26T14:44:25.574Z,53.50
2017-09-26T14:46:53.187Z,53.30
2017-09-26T14:49:20.799Z,53.60
2017-09-26T14:51:48.459Z,53.80
2017-09-26T14:54:16.061Z,54.20
2017-09-26T14:56:43.678Z,55.70
2017-09-26T14:59:11.317Z,55.80
2017-09-26T15:01:38.934Z,56.20
2017-09-26T15:04:06.550Z,54.60
2017-09-26T15:06:34.191Z,55.60
2017-09-26T15:09:01.807Z,55.80
2017-09-26T15:11:29.419Z,55.90
2017-09-26T15:13:57.061Z,56.50
2017-09-26T15:16:24.677Z,57.00
2017-09-26T15:18:52.290Z,58.60
2017-09-26T15:21:19.938Z,57.50
2017-09-26T15:23:47.544Z,57.90
2017-09-26T15:26:15.167Z,57.90
2017-09-26T15:28:42.809Z,57.30
2017-09-26T15:31:10.419Z,58.50
2017-09-26T15:33:38.034Z,58.20
2017-09-26T15:36:05.683Z,58.10
2017-09-26T15:38:33.299Z,60.10
2017-09-26T15:41:00.915Z,59.30
2017-09-26T15:43:29.326Z,58.90
2017-09-26T15:45:56.934Z,58.80
2017-09-26T15:48:25.334Z,60.70
2017-09-26T15:50:52.968Z,60.70
2017-09-26T15:53:20.586Z,60.60
2017-09-26T15:55:49.078Z,61.90
2017-09-26T15:58:16.721Z,61.90
2017-09-26T16:00:44.335Z,61.10
2017-09-26T16:03:11.946Z,61.30
2017-09-26T16:05:39.596Z,61.20
2017-09-26T16:08:07.197Z,61.10
2017-09-26T16:10:34.806Z,62.60
2017-09-26T16:13:02.451Z,63.20
2017-09-26T16:15:30.078Z,62.70
2017-09-26T16:17:57.682Z,63.10
2017-09-26T16:20:25.328Z,63.70
2017-09-26T16:22:52.944Z,63.70
2017-09-26T16:25:20.578Z,64.60
2017-09-26T16:27:48.222Z,64.00
2017-09-26T16:30:15.832Z,65.60
2017-09-26T16:32:43.442Z,65.30
2017-09-26T16:35:11.881Z,65.10
2017-09-26T16:37:39.570Z,65.00
2017-09-26T16:40:07.223Z,66.30
2017-09-26T16:42:34.964Z,66.70
2017-09-26T16:45:02.585Z,67.80
2017-09-26T16:47:31.008Z,69.60
2017-09-26T16:49:58.690Z,69.50
2017-09-26T16:52:26.313Z,68.90
2017-09-26T16:54:53.961Z,69.60
2017-09-26T16:57:21.597Z,70.20
2017-09-26T16:59:49.216Z,70.80
2017-09-26T17:02:16.821Z,70.50
2017-09-26T17:04:44.708Z,71.20
2017-09-26T17:07:12.322Z,70.90
2017-09-26T17:09:39.931Z,72.00
2017-09-26T17:12:10.142Z,72.20
2017-09-26T17:14:37.969Z,72.20
2017-09-26T17:17:05.578Z,73.60
2017-09-26T17:19:33.999Z,75.80
2017-09-26T17:22:01.626Z,75.70
2017-09-26T17:24:29.858Z,76.40
2017-09-26T17:26:58.270Z,77.60
2017-09-26T17:29:25.885Z,77.60
2017-09-26T17:31:53.506Z,78.50
2017-09-26T17:34:21.934Z,79.50
2017-09-26T17:36:49.550Z,79.50
2017-09-26T17:39:17.173Z,80.20
2017-09-26T17:41:44.822Z,80.80
2017-09-26T17:44:13.210Z,81.60
2017-09-26T17:46:40.834Z,81.60
2017-09-26T17:49:09.344Z,81.90
2017-09-26T17:51:36.993Z,81.90
2017-09-26T17:54:04.614Z,82.60
2017-09-26T17:56:32.275Z,82.00
2017-09-26T17:58:59.997Z,82.40
2017-09-26T18:01:27.610Z,83.20
2017-09-26T18:03:56.038Z,83.40
2017-09-26T18:06:23.654Z,83.50
2017-09-26T18:08:51.269Z,83.80
2017-09-26T18:11:19.876Z,84.20
2017-09-26T18:13:47.493Z,84.20
2017-09-26T18:16:15.890Z,84.20
2017-09-26T18:18:43.537Z,84.10
2017-09-26T18:21:11.174Z,84.00
2017-09-26T18:23:40.528Z,83.90
2017-09-26T18:26:09.539Z,84.40
2017-09-26T18:28:37.153Z,84.60
2017-09-26T18:31:04.771Z,84.90
2017-09-26T18:33:32.434Z,85.30
2017-09-26T18:36:00.067Z,85.50
2017-09-26T18:38:27.687Z,85.10
2017-09-26T18:40:55.358Z,85.30
2017-09-26T18:43:23.004Z,86.10
2017-09-26T18:45:50.623Z,86.90
2017-09-26T18:48:18.327Z,87.00
2017-09-26T18:50:45.946Z,87.20
2017-09-26T18:53:13.568Z,87.70
2017-09-26T18:55:41.216Z,87.70
2017-09-26T18:58:08.830Z,87.70
2017-09-26T19:00:37.222Z,88.10
2017-09-26T19:03:04.869Z,88.00
2017-09-26T19:05:32.486Z,88.30
2017-09-26T19:08:00.870Z,88.70
2017-09-26T19:10:28.575Z,88.70
2017-09-26T19:12:56.193Z,89.20
2017-09-26T19:15:23.814Z,89.10
2017-09-26T19:17:51.466Z,89.30
2017-09-26T19:20:19.161Z,89.60
2017-09-26T19:22:46.779Z,90.00
2017-09-26T19:25:14.426Z,90.40
2017-09-26T19:27:42.046Z,90.90
2017-09-26T19:30:09.675Z,91.00
2017-09-26T19:32:37.327Z,91.10
2017-09-26T19:35:04.954Z,91.30
2017-09-26T19:37:32.601Z,91.10
2017-09-26T19:40:01.018Z,91.40
2017-09-26T19:42:29.666Z,91.40
2017-09-26T19:44:57.290Z,91.40
2017-09-26T19:47:24.944Z,91.00
2017-09-26T19:49:52.560Z,90.90
2017-09-26T19:52:20.183Z,91.00
2017-09-26T19:54:47.838Z,90.60
2017-09-26T19:57:15.450Z,91.40
2017-09-26T19:59:43.063Z,92.30
2017-09-26T20:02:11.482Z,92.30
2017-09-26T20:04:39.097Z,92.20
2017-09-26T20:07:06.717Z,92.80
2017-09-26T20:09:35.142Z,93.80
2017-09-26T20:12:02.766Z,93.80
2017-09-26T20:14:30.386Z,94.00
2017-09-26T20:16:58.038Z,93.40
2017-09-26T20:19:25.666Z,92.50
2017-09-26T20:21:53.303Z,92.80
2017-09-26T20:24:21.735Z,94.10
2017-09-26T20:26:49.411Z,94.10
2017-09-26T20:29:17.026Z,94.10
2017-09-26T20:31:44.674Z,93.10
2017-09-26T20:34:12.294Z,94.00
2017-09-26T20:36:39.958Z,94.70
2017-09-26T20:39:07.614Z,95.20
2017-09-26T20:41:35.238Z,95.70
2017-09-26T20:44:02.869Z,96.20
2017-09-26T20:46:30.516Z,95.50
2017-09-26T20:48:58.137Z,95.00
2017-09-26T20:51:26.523Z,96.70
2017-09-26T20:53:54.177Z,96.60
2017-09-26T20:56:21.798Z,97.00
2017-09-26T20:58:49.495Z,97.10
2017-09-26T21:01:17.158Z,96.80
2017-09-26T21:03:44.784Z,96.60
2017-09-26T21:06:12.399Z,96.90
2017-09-26T21:08:40.041Z,96.30
2017-09-26T21:11:08.421Z,95.80
2017-09-26T21:13:36.038Z,95.80
2017-09-26T21:16:04.456Z,97.10
2017-09-26T21:18:32.074Z,97.00
2017-09-26T21:20:59.685Z,96.90
2017-09-26T21:23:28.102Z,96.10
2017-09-26T21:25:55.732Z,96.00
2017-09-26T21:28:23.378Z,95.50
2017-09-26T21:30:51.519Z,94.60
2017-09-26T21:33:19.155Z,95.70
2017-09-26T21:35:46.834Z,95.70
2017-09-26T21:38:14.482Z,95.10
2017-09-26T21:40:42.105Z,94.80
2017-09-26T21:43:10.502Z,94.20
2017-09-26T21:45:38.152Z,94.20
2017-09-26T21:48:05.774Z,93.40
2017-09-26T21:50:33.393Z,94.00
2017-09-26T21:53:01.037Z,95.50
2017-09-26T21:55:29.431Z,96.80
2017-09-26T21:57:57.054Z,96.80
2017-09-26T22:00:25.477Z,97.20
2017-09-26T22:02:53.095Z,97.20
2017-09-26T22:05:20.712Z,98.20
2017-09-26T22:07:49.162Z,99.00
2017-09-26T22:10:16.786Z,99.00
2017-09-26T22:12:44.406Z,99.80
2017-09-26T22:15:12.058Z,99.30
2017-09-26T22:17:39.681Z,99.80
2017-09-26T22:20:07.302Z,99.90
2017-09-26T22:22:34.954Z,99.90
2017-09-26T22:25:02.575Z,99.90
2017-09-26T22:27:30.186Z,99.90
2017-09-26T22:30:03.899Z,99.90
2017-09-26T22:32:31.522Z,99.90
2017-09-26T22:34:59.141Z,99.90
2017-09-26T22:37:26.792Z,99.90
2017-09-26T22:39:54.410Z,99.90
2017-09-26T22:42:22.028Z,99.90
2017-09-26T22:44:49.676Z,99.90
2017-09-26T22:47:17.289Z,99.90
2017-09-26T22:49:44.906Z,99.90
2017-09-26T22:52:13.321Z,99.90
2017-09-26T22:54:40.937Z,99.90
2017-09-26T22:57:08.549Z,99.90
2017-09-26T22:59:36.201Z,99.90
2017-09-26T23:02:04.586Z,99.90
2017-09-26T23:04:32.205Z,99.90
2017-09-26T23:06:59.853Z,99.90
2017-09-26T23:09:28.925Z,99.90
2017-09-26T23:11:56.542Z,99.90
2017-09-26T23:14:24.198Z,99.90
2017-09-26T23:16:51.822Z,99.90
2017-09-26T23:19:19.434Z,99.60
2017-09-26T23:21:47.083Z,99.90
2017-09-26T23:24:15.470Z,99.80
2017-09-26T23:26:43.102Z,99.80
2017-09-26T23:29:10.753Z,99.90
2017-09-26T23:31:38.386Z,99.90
2017-09-26T23:34:06.767Z,99.90
2017-09-26T23:36:34.431Z,99.90
2017-09-26T23:39:02.054Z,99.90
2017-09-26T23:41:29.673Z,99.90
2017-09-26T23:43:57.325Z,99.90
2017-09-26T23:46:25.701Z,98.60
2017-09-26T23:48:54.085Z,97.80
2017-09-26T23:51:21.742Z,97.70
2017-09-26T23:53:49.358Z,98.10
2017-09-26T23:56:16.978Z,97.50
2017-09-26T23:58:44.627Z,97.90
